Time;durP1;ratioP1;P1;durP2;ratioP2;P2;SDS_P1;SDS_P2;PMS_P1;PMS_P2;Temp;Humidity;BMP_temperature;BMP_pressure;BME280_temperature;BME280_humidity;BME280_pressure;Samples;Min_cycle;Max_cycle;Signal;HPM_P1;HPM_P2
2023/05/25 00:01:04;;;;;;;1.23;1.23;;;14.20;99.90;;;;;;4946750;28;20329;-68
2023/05/25 00:03:32;;;;;;;1.10;1.10;;;14.20;99.90;;;;;;4946259;29;20292;-68
2023/05/25 00:06:00;;;;;;;1.27;1.27;;;14.20;99.90;;;;;;4943018;29;20229;-68
2023/05/25 00:08:28;;;;;;;1.10;1.10;;;14.10;99.90;;;;;;4944691;28;20218;-68
2023/05/25 00:10:54;;;;;;;1.40;1.30;;;14.10;99.90;;;;;;4943716;29;20329;-68
2023/05/25 00:13:21;;;;;;;1.30;1.30;;;14.00;99.90;;;;;;4946788;29;20297;-68
2023/05/25 00:15:50;;;;;;;0.90;0.90;;;14.00;99.90;;;;;;4943284;29;20310;-68
2023/05/25 00:18:18;;;;;;;1.10;1.00;;;14.00;99.90;;;;;;4944817;29;20237;-68
2023/05/25 00:20:46;;;;;;;1.13;1.13;;;14.00;99.90;;;;;;4943702;28;20209;-68
2023/05/25 00:23:13;;;;;;;1.02;1.02;;;14.10;99.90;;;;;;4946941;29;20194;-68
2023/05/25 00:25:40;;;;;;;1.13;1.13;;;14.10;99.90;;;;;;4960455;28;20309;-67
2023/05/25 00:28:07;;;;;;;1.00;1.00;;;14.10;99.90;;;;;;4943981;28;20943;-68
2023/05/25 00:30:34;;;;;;;1.13;1.13;;;14.10;99.90;;;;;;4944467;29;20289;-68
2023/05/25 00:33:03;;;;;;;1.00;1.00;;;14.10;99.90;;;;;;4946577;28;20237;-68
2023/05/25 00:35:30;;;;;;;1.30;1.30;;;14.10;99.90;;;;;;4944552;28;20285;-68
2023/05/25 00:37:57;;;;;;;1.23;1.13;;;14.10;99.90;;;;;;4944833;29;21046;-67
2023/05/25 00:40:23;;;;;;;0.95;0.95;;;14.10;99.90;;;;;;4944439;28;20281;-69
2023/05/25 00:42:52;;;;;;;1.00;1.00;;;14.10;99.90;;;;;;4946395;28;20293;-69
2023/05/25 00:45:19;;;;;;;1.23;1.13;;;14.10;99.90;;;;;;4946072;28;20262;-69
2023/05/25 00:47:51;;;;;;;1.10;1.10;;;14.10;99.90;;;;;;4945428;28;20325;-69
2023/05/25 00:50:30;;;;;;;1.20;1.10;;;14.10;99.90;;;;;;4944314;28;20720;-68
2023/05/25 00:52:57;;;;;;;1.25;1.25;;;14.10;99.90;;;;;;4945177;29;20301;-69
2023/05/25 00:55:28;;;;;;;1.17;1.17;;;14.10;99.90;;;;;;4945828;28;20317;-69
2023/05/25 00:57:58;;;;;;;1.40;1.30;;;14.10;99.90;;;;;;4941859;29;20205;-68
2023/05/25 01:00:26;;;;;;;1.02;1.02;;;14.00;99.90;;;;;;4940665;29;20294;-69
2023/05/25 01:02:55;;;;;;;1.95;1.35;;;14.00;99.90;;;;;;4942571;29;20785;-68
2023/05/25 01:05:27;;;;;;;1.08;1.08;;;14.00;99.90;;;;;;4941792;28;20782;-68
2023/05/25 01:07:56;;;;;;;1.02;1.02;;;14.00;99.90;;;;;;4943341;29;20233;-68
2023/05/25 01:10:24;;;;;;;1.27;1.27;;;14.00;99.90;;;;;;4942220;28;20265;-68
2023/05/25 01:12:55;;;;;;;2.05;1.20;;;14.00;99.90;;;;;;4956928;28;20662;-68
2023/05/25 01:15:23;;;;;;;0.98;0.98;;;14.00;99.90;;;;;;4941232;29;21004;-68
2023/05/25 01:17:53;;;;;;;1.10;1.10;;;14.00;99.90;;;;;;4945347;28;20229;-68
2023/05/25 01:20:20;;;;;;;1.17;1.17;;;13.90;99.90;;;;;;4944268;28;20262;-68
2023/05/25 01:22:54;;;;;;;1.10;1.00;;;13.90;99.90;;;;;;4941129;29;20297;-68
2023/05/25 01:25:27;;;;;;;1.48;0.90;;;13.90;99.90;;;;;;4943962;29;20414;-68
2023/05/25 01:27:58;;;;;;;1.10;1.10;;;13.80;99.90;;;;;;4942101;29;20691;-68
2023/05/25 01:30:26;;;;;;;0.98;0.98;;;13.80;99.90;;;;;;4938685;28;20257;-68
2023/05/25 01:32:54;;;;;;;1.20;1.20;;;13.90;99.90;;;;;;4941018;28;20202;-68
2023/05/25 01:35:23;;;;;;;1.10;1.10;;;13.90;99.90;;;;;;4939760;29;20230;-68
2023/05/25 01:37:52;;;;;;;1.65;1.40;;;13.90;99.90;;;;;;4940834;28;20619;-69
2023/05/25 01:40:19;;;;;;;0.93;0.93;;;13.90;99.90;;;;;;4940969;28;20289;-69
2023/05/25 01:42:46;;;;;;;1.20;1.20;;;13.90;99.90;;;;;;4939701;28;20897;-68
2023/05/25 01:45:16;;;;;;;1.20;1.10;;;13.80;99.90;;;;;;4941751;28;20273;-68
2023/05/25 01:47:49;;;;;;;1.20;1.20;;;13.80;99.90;;;;;;4941759;28;20289;-68
2023/05/25 01:50:22;;;;;;;1.95;1.10;;;13.80;99.90;;;;;;4944112;29;20305;-68
2023/05/25 01:52:56;;;;;;;1.20;1.20;;;13.90;99.90;;;;;;4960102;28;20202;-68
2023/05/25 01:55:27;;;;;;;1.35;1.25;;;13.90;99.90;;;;;;4939623;28;20314;-68
2023/05/25 01:57:57;;;;;;;1.42;1.20;;;13.90;99.90;;;;;;4935465;29;20285;-68
2023/05/25 02:00:25;;;;;;;1.05;1.05;;;13.90;99.90;;;;;;4936225;28;20237;-68
2023/05/25 02:02:53;;;;;;;0.95;0.95;;;13.90;99.90;;;;;;4940672;28;20206;-68
2023/05/25 02:05:21;;;;;;;1.20;1.05;;;13.90;99.90;;;;;;4938728;29;20222;-68
2023/05/25 02:07:48;;;;;;;1.50;1.40;;;13.80;99.90;;;;;;4942129;28;20201;-68
2023/05/25 02:10:16;;;;;;;1.20;1.20;;;13.80;99.90;;;;;;4940940;28;20238;-68
2023/05/25 02:12:43;;;;;;;1.35;1.33;;;13.80;99.90;;;;;;4940294;28;20285;-68
2023/05/25 02:15:12;;;;;;;1.02;1.02;;;13.80;99.90;;;;;;4937681;28;20317;-68
2023/05/25 02:17:39;;;;;;;1.13;1.13;;;13.80;99.90;;;;;;4939447;28;20845;-68
2023/05/25 02:20:08;;;;;;;3.22;1.27;;;13.80;99.90;;;;;;4941691;29;20285;-68
2023/05/25 02:22:36;;;;;;;1.17;1.17;;;13.80;99.90;;;;;;4944293;28;20814;-68
2023/05/25 02:25:04;;;;;;;1.20;1.20;;;13.80;99.90;;;;;;4940190;29;20230;-68
2023/05/25 02:27:33;;;;;;;1.17;1.10;;;13.80;99.90;;;;;;4943493;28;20729;-68
2023/05/25 02:30:00;;;;;;;1.30;1.20;;;13.80;99.90;;;;;;4953935;28;20241;-68
2023/05/25 02:32:28;;;;;;;1.23;1.23;;;13.80;99.90;;;;;;4937127;28;20204;-69
2023/05/25 02:34:55;;;;;;;1.15;1.15;;;13.80;99.90;;;;;;4942727;28;20254;-69
2023/05/25 02:37:22;;;;;;;1.30;1.30;;;13.80;99.90;;;;;;4941263;29;20210;-69
2023/05/25 02:39:49;;;;;;;1.83;1.20;;;13.70;99.90;;;;;;4942857;29;20205;-69
2023/05/25 02:42:16;;;;;;;1.95;1.30;;;13.70;99.90;;;;;;4942901;28;20294;-69
2023/05/25 02:44:47;;;;;;;1.23;1.23;;;13.70;99.90;;;;;;4943723;29;20198;-68
2023/05/25 02:47:14;;;;;;;1.23;1.23;;;13.70;99.90;;;;;;4937248;28;20708;-69
2023/05/25 02:49:41;;;;;;;1.25;1.15;;;13.80;99.90;;;;;;4938429;29;20214;-69
2023/05/25 02:52:08;;;;;;;1.70;1.60;;;13.80;99.90;;;;;;4938566;29;20250;-69
2023/05/25 02:54:36;;;;;;;1.52;1.42;;;13.80;99.90;;;;;;4940106;28;20296;-69
2023/05/25 02:57:03;;;;;;;1.15;1.15;;;13.80;99.90;;;;;;4942963;28;20222;-69
2023/05/25 02:59:30;;;;;;;1.20;1.20;;;13.80;99.90;;;;;;4938044;29;20712;-69
2023/05/25 03:01:59;;;;;;;1.10;1.10;;;13.80;99.90;;;;;;4935236;28;20256;-69
2023/05/25 03:04:26;;;;;;;1.23;1.23;;;13.80;99.90;;;;;;4943604;28;20207;-68
2023/05/25 03:06:53;;;;;;;1.40;1.30;;;13.90;99.90;;;;;;4940275;29;20262;-68
2023/05/25 03:09:20;;;;;;;1.42;1.33;;;13.90;99.90;;;;;;4945261;28;20318;-69
2023/05/25 03:11:47;;;;;;;1.13;1.13;;;13.90;99.90;;;;;;4935869;29;20210;-69
2023/05/25 03:14:14;;;;;;;1.08;1.08;;;13.90;99.90;;;;;;4943577;29;20240;-69
2023/05/25 03:16:41;;;;;;;1.10;1.10;;;13.90;99.90;;;;;;4939979;28;20230;-69
2023/05/25 03:19:10;;;;;;;1.10;1.10;;;13.90;99.90;;;;;;4934805;29;20329;-69
2023/05/25 03:21:37;;;;;;;1.10;1.10;;;13.90;99.90;;;;;;4944728;28;20304;-69
2023/05/25 03:24:05;;;;;;;1.20;1.20;;;13.80;99.90;;;;;;4944877;28;20749;-68
2023/05/25 03:26:32;;;;;;;1.20;1.20;;;13.80;99.90;;;;;;4944937;29;20222;-68
2023/05/25 03:29:00;;;;;;;1.10;1.10;;;13.80;99.90;;;;;;4939683;28;20330;-68
2023/05/25 03:31:27;;;;;;;1.50;1.25;;;13.80;99.90;;;;;;4940670;29;20269;-68
2023/05/25 03:33:54;;;;;;;1.60;1.50;;;13.80;99.90;;;;;;4941004;29;20484;-68
2023/05/25 03:36:26;;;;;;;1.30;1.30;;;13.70;99.90;;;;;;4941997;28;20226;-68
2023/05/25 03:38:53;;;;;;;1.13;1.10;;;13.70;99.90;;;;;;4941445;28;20199;-68
2023/05/25 03:41:20;;;;;;;0.88;0.82;;;13.70;99.90;;;;;;4940471;28;20702;-68
2023/05/25 03:43:47;;;;;;;1.10;1.10;;;13.70;99.90;;;;;;4935580;29;20205;-68
2023/05/25 03:46:14;;;;;;;1.10;1.10;;;13.70;99.90;;;;;;4938730;28;20214;-68
2023/05/25 03:48:41;;;;;;;1.10;1.10;;;13.80;99.90;;;;;;4944113;28;20210;-69
2023/05/25 03:51:09;;;;;;;1.10;1.10;;;13.80;99.90;;;;;;4943486;29;20326;-68
2023/05/25 03:53:37;;;;;;;1.10;1.10;;;13.80;99.90;;;;;;4943248;29;20488;-69
2023/05/25 03:56:05;;;;;;;1.23;1.23;;;13.80;99.90;;;;;;4939951;28;21218;-68
2023/05/25 03:58:32;;;;;;;1.10;1.10;;;13.80;99.90;;;;;;4945715;28;20206;-68
2023/05/25 04:00:59;;;;;;;1.08;1.08;;;13.70;99.90;;;;;;4945173;28;20792;-69
2023/05/25 04:03:26;;;;;;;1.40;1.30;;;13.70;99.90;;;;;;4946443;28;20237;-69
2023/05/25 04:05:54;;;;;;;1.70;1.60;;;13.70;99.90;;;;;;4942470;29;20230;-69
2023/05/25 04:08:21;;;;;;;1.02;1.02;;;13.70;99.90;;;;;;4952284;28;20210;-69
2023/05/25 04:10:49;;;;;;;1.20;1.20;;;13.70;99.90;;;;;;4942053;29;20933;-68
2023/05/25 04:13:17;;;;;;;1.23;1.23;;;13.70;99.90;;;;;;4947560;29;20210;-69
2023/05/25 04:15:44;;;;;;;1.10;1.10;;;13.70;99.90;;;;;;4943731;28;20237;-69
2023/05/25 04:18:11;;;;;;;1.20;1.10;;;13.60;99.90;;;;;;4945066;28;20289;-69
2023/05/25 04:20:38;;;;;;;1.17;1.17;;;13.70;99.90;;;;;;4942924;28;20865;-69
2023/05/25 04:23:05;;;;;;;1.48;1.38;;;13.70;99.90;;;;;;4947615;28;20298;-69
2023/05/25 04:25:32;;;;;;;1.27;1.27;;;13.70;99.90;;;;;;4940914;29;20250;-69
2023/05/25 04:28:00;;;;;;;1.00;1.00;;;13.80;99.90;;;;;;4942830;29;20289;-67
2023/05/25 04:30:28;;;;;;;1.10;1.10;;;13.80;99.90;;;;;;4939987;28;20301;-68
2023/05/25 04:32:56;;;;;;;1.83;1.73;;;13.80;99.90;;;;;;4946644;28;20198;-67
2023/05/25 04:35:23;;;;;;;1.50;1.40;;;13.80;99.90;;;;;;4954706;28;20226;-67
2023/05/25 04:37:50;;;;;;;1.40;1.40;;;13.70;99.90;;;;;;4956231;28;20286;-66
2023/05/25 04:40:20;;;;;;;1.40;1.30;;;13.70;99.90;;;;;;4949297;28;20867;-69
2023/05/25 04:42:47;;;;;;;1.15;1.15;;;13.70;99.90;;;;;;4946349;29;20198;-68
2023/05/25 04:45:16;;;;;;;1.23;1.20;;;13.70;99.90;;;;;;4947120;29;20265;-69
2023/05/25 04:47:44;;;;;;;1.50;1.40;;;13.70;99.90;;;;;;4942622;29;20203;-69
2023/05/25 04:50:12;;;;;;;1.35;1.30;;;13.70;99.90;;;;;;4940508;29;20237;-68
2023/05/25 04:52:39;;;;;;;1.60;1.50;;;13.70;99.90;;;;;;4946404;28;20302;-67
2023/05/25 04:55:07;;;;;;;1.60;1.40;;;13.60;99.90;;;;;;4945261;28;20313;-69
2023/05/25 04:57:34;;;;;;;1.50;1.40;;;13.50;99.90;;;;;;4941006;28;20277;-68
2023/05/25 05:00:01;;;;;;;4.03;1.58;;;13.40;99.90;;;;;;4940263;29;20213;-68
2023/05/25 05:02:29;;;;;;;1.63;1.52;;;13.40;99.90;;;;;;4947356;28;20269;-69
2023/05/25 05:04:56;;;;;;;1.60;1.50;;;13.40;99.90;;;;;;4945712;28;20293;-68
2023/05/25 05:07:23;;;;;;;1.60;1.50;;;13.50;99.90;;;;;;4944299;28;20234;-68
2023/05/25 05:09:51;;;;;;;1.13;1.13;;;13.50;99.90;;;;;;4943681;29;20904;-67
2023/05/25 05:12:18;;;;;;;1.40;1.30;;;13.60;99.90;;;;;;4941975;29;20294;-67
2023/05/25 05:14:44;;;;;;;1.27;1.23;;;13.70;99.90;;;;;;4944325;28;20233;-67
2023/05/25 05:17:11;;;;;;;1.70;1.60;;;13.70;99.90;;;;;;4942010;29;20274;-68
2023/05/25 05:19:40;;;;;;;1.30;1.30;;;13.80;99.90;;;;;;4941315;28;20207;-68
2023/05/25 05:22:08;;;;;;;1.55;1.45;;;13.80;99.90;;;;;;4942378;28;20289;-69
2023/05/25 05:24:35;;;;;;;1.40;1.40;;;13.80;99.90;;;;;;4943051;29;20217;-69
2023/05/25 05:27:02;;;;;;;1.20;1.20;;;13.90;99.90;;;;;;4940885;28;20322;-69
2023/05/25 05:29:29;;;;;;;1.55;1.45;;;13.80;99.90;;;;;;4954684;28;20202;-68
2023/05/25 05:31:56;;;;;;;1.30;1.30;;;13.90;99.90;;;;;;4939683;29;20761;-68
2023/05/25 05:34:24;;;;;;;1.55;1.40;;;13.90;99.90;;;;;;4952336;28;20298;-69
2023/05/25 05:36:52;;;;;;;1.70;1.60;;;13.90;99.90;;;;;;4940181;28;20321;-68
2023/05/25 05:39:19;;;;;;;1.33;1.23;;;14.00;99.90;;;;;;4940904;28;20249;-68
2023/05/25 05:41:46;;;;;;;1.40;1.30;;;14.00;99.90;;;;;;4940997;29;20288;-68
2023/05/25 05:44:13;;;;;;;1.30;1.30;;;14.00;99.90;;;;;;4944641;28;20206;-68
2023/05/25 05:46:41;;;;;;;1.30;1.30;;;14.00;99.90;;;;;;4941061;29;20317;-69
2023/05/25 05:49:08;;;;;;;1.25;1.25;;;14.00;99.90;;;;;;4938812;28;20218;-69
2023/05/25 05:51:35;;;;;;;1.40;1.40;;;14.00;99.90;;;;;;4940510;29;20258;-68
2023/05/25 05:54:04;;;;;;;1.23;1.23;;;14.00;99.90;;;;;;4941106;28;20314;-69
2023/05/25 05:56:31;;;;;;;1.63;1.52;;;14.10;99.90;;;;;;4944585;28;20260;-68
2023/05/25 05:58:58;;;;;;;1.60;1.50;;;14.10;99.90;;;;;;4940321;29;20808;-69
2023/05/25 06:01:25;;;;;;;1.48;1.40;;;14.00;99.90;;;;;;4941342;28;20233;-69
2023/05/25 06:03:53;;;;;;;1.20;1.20;;;14.00;99.90;;;;;;4942323;29;20237;-69
2023/05/25 06:06:21;;;;;;;1.45;1.38;;;14.00;99.90;;;;;;4938579;28;20226;-69
2023/05/25 06:08:48;;;;;;;1.20;1.10;;;14.00;99.90;;;;;;4942161;28;20206;-69
2023/05/25 06:11:17;;;;;;;1.20;1.20;;;14.00;99.90;;;;;;4956923;28;21047;-69
2023/05/25 06:13:44;;;;;;;1.20;1.20;;;14.00;99.90;;;;;;4939297;29;20209;-69
2023/05/25 06:16:12;;;;;;;1.27;1.27;;;14.00;99.90;;;;;;4941076;29;20313;-69
2023/05/25 06:18:38;;;;;;;1.60;1.50;;;14.10;99.90;;;;;;4942474;28;20200;-69
2023/05/25 06:21:06;;;;;;;1.25;1.25;;;14.10;99.90;;;;;;4944424;29;20253;-69
2023/05/25 06:23:33;;;;;;;1.25;1.25;;;14.10;99.90;;;;;;4942726;28;20246;-69
2023/05/25 06:26:04;;;;;;;1.67;1.23;;;14.20;99.90;;;;;;4941527;29;20305;-69
2023/05/25 06:28:33;;;;;;;2.33;1.70;;;14.20;99.90;;;;;;4940243;28;20211;-69
2023/05/25 06:31:00;;;;;;;1.67;1.58;;;14.20;99.90;;;;;;4941605;28;20222;-69
2023/05/25 06:33:27;;;;;;;1.45;1.45;;;14.10;99.90;;;;;;4941305;29;20317;-69
2023/05/25 06:35:59;;;;;;;1.60;1.50;;;14.20;99.90;;;;;;4940878;29;20317;-69
2023/05/25 06:38:26;;;;;;;1.70;1.60;;;14.20;99.90;;;;;;4935450;28;20228;-69
2023/05/25 06:40:53;;;;;;;2.20;1.70;;;14.20;99.90;;;;;;4940559;29;20224;-69
2023/05/25 06:43:21;;;;;;;2.65;1.75;;;14.10;99.90;;;;;;4936078;29;20238;-69
2023/05/25 06:45:50;;;;;;;2.05;1.67;;;14.10;99.90;;;;;;4939126;28;20264;-69
2023/05/25 06:48:17;;;;;;;2.15;1.60;;;14.10;99.90;;;;;;4937094;29;20748;-69
2023/05/25 06:50:44;;;;;;;1.63;1.52;;;14.10;99.90;;;;;;4938455;28;20810;-69
2023/05/25 06:53:12;;;;;;;1.70;1.60;;;14.20;99.90;;;;;;4941584;28;20203;-69
2023/05/25 06:55:39;;;;;;;2.35;1.88;;;14.20;99.90;;;;;;4939489;28;20306;-69
2023/05/25 06:58:06;;;;;;;2.17;1.80;;;14.20;99.90;;;;;;4939297;29;20281;-69
2023/05/25 07:00:33;;;;;;;2.03;1.92;;;14.20;99.90;;;;;;4941798;28;20209;-69
2023/05/25 07:03:01;;;;;;;1.95;1.77;;;14.20;99.90;;;;;;4940929;29;20675;-68
2023/05/25 07:05:28;;;;;;;1.92;1.83;;;14.20;99.90;;;;;;4937727;29;20233;-69
2023/05/25 07:07:56;;;;;;;1.80;1.70;;;14.20;99.90;;;;;;4942728;28;20210;-69
2023/05/25 07:10:23;;;;;;;1.73;1.63;;;14.20;99.90;;;;;;4934346;28;20289;-68
2023/05/25 07:12:51;;;;;;;2.17;2.03;;;14.30;99.90;;;;;;4938042;28;20206;-67
2023/05/25 07:15:20;;;;;;;1.80;1.70;;;14.40;99.90;;;;;;4941469;28;20312;-68
2023/05/25 07:17:47;;;;;;;1.83;1.73;;;14.50;99.90;;;;;;4937938;28;20321;-69
2023/05/25 07:20:16;;;;;;;1.88;1.70;;;14.50;99.90;;;;;;4941743;28;20233;-69
2023/05/25 07:22:43;;;;;;;1.92;1.83;;;14.50;99.90;;;;;;4935175;29;20214;-68
2023/05/25 07:25:10;;;;;;;7.32;2.40;;;14.50;99.90;;;;;;4939023;29;20899;-68
2023/05/25 07:27:38;;;;;;;15.45;2.85;;;14.50;99.90;;;;;;4937747;28;20206;-68
2023/05/25 07:30:07;;;;;;;2.42;2.22;;;14.40;99.90;;;;;;4939885;28;20214;-69
2023/05/25 07:32:33;;;;;;;2.53;2.33;;;14.40;99.90;;;;;;4939051;28;20301;-69
2023/05/25 07:35:01;;;;;;;2.55;2.35;;;14.50;99.90;;;;;;4940935;29;20242;-69
2023/05/25 07:37:29;;;;;;;2.40;2.17;;;14.50;99.90;;;;;;4933585;29;20210;-69
2023/05/25 07:39:56;;;;;;;2.30;2.20;;;14.60;99.90;;;;;;4941236;28;20224;-69
2023/05/25 07:42:23;;;;;;;2.20;2.10;;;14.70;99.90;;;;;;4937152;28;20285;-69
2023/05/25 07:44:51;;;;;;;2.53;2.33;;;14.80;99.90;;;;;;4943511;29;20286;-69
2023/05/25 07:47:17;;;;;;;2.65;2.45;;;14.80;99.90;;;;;;4940772;29;20230;-69
2023/05/25 07:49:44;;;;;;;2.10;2.00;;;14.80;99.90;;;;;;4936903;28;20257;-69
2023/05/25 07:52:13;;;;;;;1.88;1.77;;;14.80;99.90;;;;;;4941149;28;20228;-68
2023/05/25 07:54:41;;;;;;;3.58;2.45;;;14.80;99.90;;;;;;4938921;28;20302;-69
2023/05/25 07:57:08;;;;;;;2.45;2.20;;;14.80;99.90;;;;;;4941643;28;20345;-69
2023/05/25 07:59:36;;;;;;;2.28;2.08;;;14.90;99.90;;;;;;4941527;28;20305;-68
2023/05/25 08:02:03;;;;;;;2.45;2.25;;;14.90;99.90;;;;;;4943777;28;20230;-69
2023/05/25 08:04:32;;;;;;;2.33;2.22;;;15.00;99.90;;;;;;4942442;28;20664;-69
2023/05/25 08:07:00;;;;;;;2.67;2.47;;;15.10;99.90;;;;;;4920767;28;20278;-70
2023/05/25 08:09:27;;;;;;;2.60;2.17;;;15.20;99.90;;;;;;4941916;29;20839;-69
2023/05/25 08:11:55;;;;;;;2.30;2.05;;;15.30;99.90;;;;;;4941333;28;20250;-69
2023/05/25 08:14:23;;;;;;;2.00;1.90;;;15.50;99.90;;;;;;4944811;29;20202;-69
2023/05/25 08:16:51;;;;;;;2.08;1.90;;;15.60;99.90;;;;;;4945832;28;20230;-69
2023/05/25 08:19:18;;;;;;;1.90;1.80;;;15.70;99.90;;;;;;4939209;28;20254;-69
2023/05/25 08:21:45;;;;;;;1.70;1.60;;;15.80;99.90;;;;;;4939678;29;20205;-69
2023/05/25 08:24:12;;;;;;;2.03;1.80;;;15.90;99.90;;;;;;4939553;29;20296;-68
2023/05/25 08:26:40;;;;;;;2.55;1.95;;;16.00;99.90;;;;;;4942022;29;20685;-68
2023/05/25 08:29:08;;;;;;;2.25;2.05;;;16.00;99.90;;;;;;4941341;28;20273;-67
2023/05/25 08:31:36;;;;;;;2.30;2.10;;;16.10;99.90;;;;;;4949368;28;20218;-69
2023/05/25 08:34:02;;;;;;;2.25;1.77;;;16.10;99.90;;;;;;4944906;28;20230;-68
2023/05/25 08:36:32;;;;;;;3.50;1.77;;;16.00;99.90;;;;;;4945548;28;20309;-68
2023/05/25 08:39:00;;;;;;;1.92;1.83;;;16.00;99.90;;;;;;4941931;29;20207;-69
2023/05/25 08:41:27;;;;;;;1.85;1.75;;;16.00;99.90;;;;;;4942179;29;20253;-69
2023/05/25 08:43:54;;;;;;;2.00;1.90;;;16.10;99.90;;;;;;4944493;29;20285;-69
2023/05/25 08:46:30;;;;;;;2.58;1.60;;;16.20;99.90;;;;;;4941621;28;20289;-67
2023/05/25 08:49:04;;;;;;;2.05;1.95;;;16.20;99.90;;;;;;4939566;29;20547;-69
2023/05/25 08:51:35;;;;;;;2.45;2.00;;;16.20;99.90;;;;;;4940336;28;20223;-70
2023/05/25 08:54:07;;;;;;;2.10;2.00;;;16.30;99.90;;;;;;4941268;28;20253;-69
2023/05/25 08:56:40;;;;;;;2.53;2.33;;;16.30;99.90;;;;;;4939478;28;20780;-68
2023/05/25 08:59:17;;;;;;;2.60;2.10;;;16.40;99.90;;;;;;4941570;28;20297;-69
2023/05/25 09:01:48;;;;;;;2.40;2.20;;;16.50;99.90;;;;;;4940371;28;20236;-68
2023/05/25 09:04:19;;;;;;;2.15;2.00;;;16.70;99.90;;;;;;4940709;28;20727;-68
2023/05/25 09:06:47;;;;;;;2.25;2.05;;;17.00;99.90;;;;;;4942651;29;20937;-67
2023/05/25 09:09:14;;;;;;;2.75;2.10;;;17.30;99.90;;;;;;4943044;28;20297;-68
2023/05/25 09:11:42;;;;;;;2.10;2.00;;;17.50;99.90;;;;;;4942035;29;20320;-68
2023/05/25 09:14:09;;;;;;;2.25;2.08;;;17.70;99.90;;;;;;4942802;28;20317;-67
2023/05/25 09:16:38;;;;;;;2.00;1.90;;;17.60;99.90;;;;;;4939825;29;20258;-68
2023/05/25 09:19:07;;;;;;;3.75;2.10;;;17.40;99.90;;;;;;4939106;28;20205;-66
2023/05/25 09:21:34;;;;;;;2.30;2.03;;;17.50;99.90;;;;;;4942789;28;20313;-68
2023/05/25 09:24:01;;;;;;;2.28;2.10;;;17.40;99.90;;;;;;4942916;28;20202;-68
2023/05/25 09:26:29;;;;;;;2.20;2.10;;;17.50;99.90;;;;;;4946292;28;20589;-68
2023/05/25 09:28:57;;;;;;;2.17;2.05;;;17.50;99.90;;;;;;4944698;28;20213;-68
2023/05/25 09:31:24;;;;;;;1.90;1.80;;;17.40;99.90;;;;;;4940076;29;20661;-68
2023/05/25 09:35:33;;;;;;;2.28;2.10;;;17.30;99.90;;;;;;5104766;27;20694;-77
2023/05/25 09:38:00;;;;;;;2.22;1.85;;;17.20;99.90;;;;;;5111044;27;20241;-75
2023/05/25 09:40:27;;;;;;;2.53;2.33;;;17.10;99.90;;;;;;5107454;27;20260;-75
2023/05/25 09:42:54;;;;;;;2.03;1.92;;;17.10;99.90;;;;;;5108780;27;20257;-75
2023/05/25 09:45:23;;;;;;;1.85;1.75;;;17.00;99.90;;;;;;5110255;27;20295;-74
2023/05/25 09:47:54;;;;;;;1.90;1.80;;;17.10;99.90;;;;;;5113255;27;20192;-72
2023/05/25 09:50:21;;;;;;;1.83;1.73;;;17.10;99.90;;;;;;5109817;27;20731;-74
2023/05/25 09:52:52;;;;;;;1.70;1.60;;;17.10;99.90;;;;;;5115155;27;20224;-75
2023/05/25 09:55:18;;;;;;;2.03;1.92;;;17.10;99.90;;;;;;5114200;28;20291;-74
2023/05/25 09:57:45;;;;;;;1.90;1.80;;;17.10;99.90;;;;;;5115472;27;20196;-74
2023/05/25 10:00:13;;;;;;;1.90;1.80;;;17.10;99.90;;;;;;5115802;27;20224;-74
2023/05/25 10:02:41;;;;;;;1.75;1.50;;;17.20;99.90;;;;;;5110761;27;20239;-74
2023/05/25 10:05:09;;;;;;;2.15;2.03;;;17.20;99.90;;;;;;5109627;27;20376;-76
2023/05/25 10:07:39;;;;;;;2.20;2.10;;;17.20;99.90;;;;;;5110173;27;20201;-75
2023/05/25 10:10:10;;;;;;;2.60;1.90;;;17.20;99.90;;;;;;5111121;27;20208;-74
2023/05/25 10:12:38;;;;;;;2.50;2.30;;;17.10;99.90;;;;;;5107752;28;20849;-74
2023/05/25 10:15:07;;;;;;;2.42;2.20;;;17.10;99.90;;;;;;5112656;27;20311;-76
2023/05/25 10:17:36;;;;;;;2.13;1.92;;;17.20;99.90;;;;;;5113259;27;20272;-74
2023/05/25 10:20:07;;;;;;;2.30;2.10;;;17.40;99.90;;;;;;5108233;28;20278;-76
2023/05/25 10:22:40;;;;;;;2.55;2.45;;;17.60;99.90;;;;;;5111618;27;20224;-74
2023/05/25 10:25:16;;;;;;;2.30;2.17;;;17.60;99.90;;;;;;5113442;27;20714;-74
2023/05/25 10:27:48;;;;;;;3.33;2.03;;;17.70;99.90;;;;;;5109238;28;20298;-74
2023/05/25 10:30:15;;;;;;;2.15;2.05;;;17.90;99.90;;;;;;5111799;27;20725;-74
2023/05/25 10:32:44;;;;;;;2.38;2.20;;;18.10;99.90;;;;;;5110450;27;20197;-74
2023/05/25 10:35:12;;;;;;;2.10;2.00;;;18.50;99.90;;;;;;5106255;27;20751;-75
2023/05/25 10:37:40;;;;;;;2.47;2.35;;;19.10;99.90;;;;;;5110116;27;20240;-74
2023/05/25 10:40:09;;;;;;;2.10;2.00;;;19.50;99.90;;;;;;5111138;28;20286;-73
2023/05/25 10:42:38;;;;;;;2.47;2.30;;;19.80;99.90;;;;;;5109652;27;20246;-74
2023/05/25 10:45:07;;;;;;;2.60;2.40;;;20.00;99.90;;;;;;5107996;28;20693;-74
2023/05/25 10:47:36;;;;;;;2.42;2.22;;;20.10;99.90;;;;;;5106214;28;20222;-78
2023/05/25 10:50:05;;;;;;;2.45;2.25;;;20.20;99.90;;;;;;5103216;28;20232;-80
2023/05/25 10:53:01;;;;;;;2.10;2.00;;;20.30;99.90;;;;;;5098105;28;20646;-79
2023/05/25 10:55:51;;;;;;;3.15;2.40;;;20.50;99.90;;;;;;5107921;27;20255;-78
2023/05/25 10:58:20;;;;;;;2.60;2.40;;;20.60;99.90;;;;;;5104756;28;20201;-78
2023/05/25 11:01:00;;;;;;;2.20;2.10;;;20.60;99.90;;;;;;5099808;28;20201;-78
2023/05/25 11:03:56;;;;;;;2.92;2.67;;;20.50;99.90;;;;;;5102872;28;20282;-77
2023/05/25 11:06:44;;;;;;;2.50;2.30;;;20.50;99.90;;;;;;5101474;27;20221;-77
2023/05/25 11:09:24;;;;;;;3.47;3.13;;;20.60;99.90;;;;;;5112499;28;20306;-77
2023/05/25 11:12:08;;;;;;;3.47;3.15;;;21.00;99.90;;;;;;5112156;28;20192;-77
2023/05/25 11:14:37;;;;;;;2.75;2.55;;;21.30;99.90;;;;;;5112441;28;20273;-77
2023/05/25 11:17:09;;;;;;;2.00;1.90;;;21.50;99.90;;;;;;5114723;28;20188;-75
2023/05/25 11:19:41;;;;;;;4.40;2.50;;;21.60;99.90;;;;;;5111824;28;20724;-76
2023/05/25 11:22:16;;;;;;;4.55;2.10;;;21.50;99.90;;;;;;5115168;28;20185;-76
2023/05/25 11:24:44;;;;;;;2.83;2.30;;;21.50;99.90;;;;;;5120219;28;20189;-76
2023/05/25 11:27:12;;;;;;;1.90;1.80;;;21.50;99.90;;;;;;5114067;28;20236;-77
2023/05/25 11:29:40;;;;;;;2.10;2.00;;;21.40;99.90;;;;;;5110455;28;20202;-76
2023/05/25 11:32:13;;;;;;;2.10;2.00;;;21.50;99.90;;;;;;5115365;28;20200;-77
2023/05/25 11:34:45;;;;;;;2.53;2.25;;;21.60;99.90;;;;;;5106582;28;20289;-77
2023/05/25 11:37:14;;;;;;;1.98;1.88;;;21.70;99.90;;;;;;5115624;28;20557;-76
2023/05/25 11:39:43;;;;;;;2.05;1.95;;;21.80;99.90;;;;;;5110315;28;20236;-76
2023/05/25 11:42:12;;;;;;;2.92;2.33;;;21.90;99.90;;;;;;5105868;28;20193;-76
2023/05/25 11:44:40;;;;;;;1.92;1.65;;;22.00;99.90;;;;;;5107289;28;20225;-76
2023/05/25 11:47:08;;;;;;;2.00;1.90;;;22.10;99.90;;;;;;5110119;28;20202;-76
2023/05/25 11:49:38;;;;;;;1.63;1.52;;;22.10;99.90;;;;;;5111818;28;20196;-75
2023/05/25 11:52:06;;;;;;;1.60;1.50;;;22.20;99.90;;;;;;5111106;28;20208;-76
2023/05/25 11:54:34;;;;;;;1.80;1.70;;;22.20;99.90;;;;;;5112720;28;20598;-78
2023/05/25 11:57:02;;;;;;;2.47;1.80;;;22.20;99.90;;;;;;5107916;28;20232;-76
2023/05/25 11:59:30;;;;;;;1.80;1.70;;;22.20;99.90;;;;;;5105442;28;20656;-76
2023/05/25 12:01:59;;;;;;;2.00;1.90;;;22.20;99.90;;;;;;5105127;28;20929;-76
2023/05/25 12:04:26;;;;;;;1.90;1.80;;;22.40;99.90;;;;;;5103589;28;20231;-75
2023/05/25 12:06:53;;;;;;;2.10;2.00;;;22.60;99.90;;;;;;5109710;28;20235;-77
2023/05/25 12:09:21;;;;;;;2.10;1.90;;;22.80;99.90;;;;;;5100982;28;20197;-77
2023/05/25 12:11:48;;;;;;;1.95;1.65;;;22.80;99.90;;;;;;5107057;28;20787;-76
2023/05/25 12:14:15;;;;;;;1.70;1.60;;;22.70;99.90;;;;;;5105837;28;20285;-76
2023/05/25 12:16:44;;;;;;;1.60;1.50;;;22.70;99.90;;;;;;5106940;28;20244;-77
2023/05/25 12:19:12;;;;;;;1.75;1.65;;;22.70;99.90;;;;;;5104387;28;20205;-76
2023/05/25 12:21:40;;;;;;;1.50;1.40;;;22.80;99.90;;;;;;5108799;28;20585;-77
2023/05/25 12:24:08;;;;;;;1.60;1.50;;;23.00;99.90;;;;;;5111188;28;20200;-77
2023/05/25 12:26:35;;;;;;;1.77;1.52;;;23.00;99.90;;;;;;5113151;28;20209;-77
2023/05/25 12:29:04;;;;;;;1.70;1.60;;;23.10;99.90;;;;;;5104349;28;20712;-77
2023/05/25 12:31:33;;;;;;;2.00;1.80;;;23.20;99.90;;;;;;5109539;28;20201;-79
2023/05/25 12:34:09;;;;;;;1.67;1.52;;;23.40;99.90;;;;;;5109281;28;20284;-78
2023/05/25 12:36:40;;;;;;;1.90;1.70;;;23.50;99.90;;;;;;5111302;28;20588;-78
2023/05/25 12:39:08;;;;;;;1.90;1.80;;;23.50;99.90;;;;;;5113125;28;20193;-78
2023/05/25 12:41:50;;;;;;;1.58;1.48;;;23.60;99.90;;;;;;5113159;28;20194;-78
2023/05/25 12:44:22;;;;;;;1.52;1.42;;;23.60;99.90;;;;;;5114828;28;20190;-78
2023/05/25 12:46:51;;;;;;;1.85;1.70;;;23.80;99.90;;;;;;5118847;28;20216;-78
2023/05/25 12:49:30;;;;;;;1.73;1.33;;;23.80;99.90;;;;;;5108493;28;20209;-78
2023/05/25 12:51:58;;;;;;;1.50;1.35;;;23.90;99.90;;;;;;5111023;28;20209;-77
2023/05/25 12:54:40;;;;;;;1.88;1.48;;;24.10;99.90;;;;;;5109285;28;20221;-77
2023/05/25 12:57:09;;;;;;;1.70;1.60;;;24.30;99.90;;;;;;5107397;28;20288;-77